sensor_id;sensor_type;location;lat;lon;timestamp;pressure;altitude;pressure_sealevel;temperature;humidity
38466;BME280;24244;51.950;5.902;2023-06-26T00:00:54;101102.31;;;24.44;59.71
38466;BME280;24244;51.950;5.902;2023-06-26T00:03:20;101096.03;;;24.38;59.79
38466;BME280;24244;51.950;5.902;2023-06-26T00:05:49;101102.03;;;24.35;60.05
38466;BME280;24244;51.950;5.902;2023-06-26T00:08:17;101091.13;;;24.30;60.03
38466;BME280;24244;51.950;5.902;2023-06-26T00:10:44;101089.25;;;24.26;60.28
38466;BME280;24244;51.950;5.902;2023-06-26T00:13:11;101087.34;;;24.21;60.46
38466;BME280;24244;51.950;5.902;2023-06-26T00:15:39;101086.19;;;24.17;60.26
38466;BME280;24244;51.950;5.902;2023-06-26T00:18:05;101084.03;;;24.14;60.56
38466;BME280;24244;51.950;5.902;2023-06-26T00:20:32;101081.03;;;24.10;60.90
38466;BME280;24244;51.950;5.902;2023-06-26T00:23:02;101080.75;;;24.07;60.99
38466;BME280;24244;51.950;5.902;2023-06-26T00:25:34;101075.84;;;24.04;61.03
38466;BME280;24244;51.950;5.902;2023-06-26T00:28:00;101065.53;;;24.01;60.99
38466;BME280;24244;51.950;5.902;2023-06-26T00:30:27;101076.91;;;23.98;61.27
38466;BME280;24244;51.950;5.902;2023-06-26T00:32:54;101066.56;;;23.95;61.21
38466;BME280;24244;51.950;5.902;2023-06-26T00:35:21;101063.59;;;23.91;61.27
38466;BME280;24244;51.950;5.902;2023-06-26T00:37:48;101061.41;;;23.88;61.42
38466;BME280;24244;51.950;5.902;2023-06-26T00:40:17;101057.34;;;23.86;61.48
38466;BME280;24244;51.950;5.902;2023-06-26T00:42:43;101054.06;;;23.84;61.52
38466;BME280;24244;51.950;5.902;2023-06-26T00:45:12;101055.41;;;23.81;61.65
38466;BME280;24244;51.950;5.902;2023-06-26T00:47:38;101063.28;;;23.77;61.75
38466;BME280;24244;51.950;5.902;2023-06-26T00:50:06;101061.09;;;23.74;61.85
38466;BME280;24244;51.950;5.902;2023-06-26T00:52:33;101063.53;;;23.71;61.95
38466;BME280;24244;51.950;5.902;2023-06-26T00:55:00;101070.84;;;23.70;62.12
38466;BME280;24244;51.950;5.902;2023-06-26T00:57:29;101067.88;;;23.72;61.99
38466;BME280;24244;51.950;5.902;2023-06-26T00:59:57;101067.06;;;23.71;62.21
38466;BME280;24244;51.950;5.902;2023-06-26T01:02:23;101075.22;;;23.71;62.32
38466;BME280;24244;51.950;5.902;2023-06-26T01:04:51;101069.78;;;23.71;62.32
38466;BME280;24244;51.950;5.902;2023-06-26T01:07:18;101068.41;;;23.69;62.35
38466;BME280;24244;51.950;5.902;2023-06-26T01:09:49;101062.41;;;23.67;62.50
38466;BME280;24244;51.950;5.902;2023-06-26T01:12:16;101057.53;;;23.64;62.68
38466;BME280;24244;51.950;5.902;2023-06-26T01:14:44;101060.50;;;23.62;62.84
38466;BME280;24244;51.950;5.902;2023-06-26T01:17:11;101056.41;;;23.60;62.80
38466;BME280;24244;51.950;5.902;2023-06-26T01:19:42;101057.78;;;23.57;62.89
38466;BME280;24244;51.950;5.902;2023-06-26T01:22:16;101056.66;;;23.53;62.91
38466;BME280;24244;51.950;5.902;2023-06-26T01:25:10;101055.31;;;23.51;63.16
38466;BME280;24244;51.950;5.902;2023-06-26T01:27:41;101057.47;;;23.49;63.21
38466;BME280;24244;51.950;5.902;2023-06-26T01:30:10;101055.81;;;23.48;63.28
38466;BME280;24244;51.950;5.902;2023-06-26T01:32:39;101060.41;;;23.47;63.14
38466;BME280;24244;51.950;5.902;2023-06-26T01:35:07;101054.97;;;23.47;63.17
38466;BME280;24244;51.950;5.902;2023-06-26T01:37:35;101054.16;;;23.47;63.39
38466;BME280;24244;51.950;5.902;2023-06-26T01:40:01;101059.09;;;23.50;63.25
38466;BME280;24244;51.950;5.902;2023-06-26T01:42:32;101077.84;;;23.51;63.03
38466;BME280;24244;51.950;5.902;2023-06-26T01:45:02;101075.66;;;23.53;63.04
38466;BME280;24244;51.950;5.902;2023-06-26T01:47:36;101078.13;;;23.55;62.94
38466;BME280;24244;51.950;5.902;2023-06-26T01:50:09;101082.19;;;23.57;62.92
38466;BME280;24244;51.950;5.902;2023-06-26T01:52:41;101084.66;;;23.59;62.79
38466;BME280;24244;51.950;5.902;2023-06-26T01:55:20;101082.72;;;23.59;62.74
38466;BME280;24244;51.950;5.902;2023-06-26T01:57:48;101075.16;;;23.61;62.69
38466;BME280;24244;51.950;5.902;2023-06-26T02:00:19;101082.22;;;23.62;62.46
38466;BME280;24244;51.950;5.902;2023-06-26T02:02:47;101083.84;;;23.63;62.22
38466;BME280;24244;51.950;5.902;2023-06-26T02:05:14;101089.03;;;23.65;62.22
38466;BME280;24244;51.950;5.902;2023-06-26T02:07:43;101096.09;;;23.66;62.10
38466;BME280;24244;51.950;5.902;2023-06-26T02:10:13;101095.81;;;23.67;62.05
38466;BME280;24244;51.950;5.902;2023-06-26T02:12:40;101098.53;;;23.67;61.78
38466;BME280;24244;51.950;5.902;2023-06-26T02:15:08;101102.06;;;23.68;61.77
38466;BME280;24244;51.950;5.902;2023-06-26T02:17:36;101108.31;;;23.68;62.02
38466;BME280;24244;51.950;5.902;2023-06-26T02:20:04;101105.03;;;23.66;61.98
38466;BME280;24244;51.950;5.902;2023-06-26T02:22:30;101103.41;;;23.65;61.96
38466;BME280;24244;51.950;5.902;2023-06-26T02:24:57;101098.00;;;23.65;61.99
38466;BME280;24244;51.950;5.902;2023-06-26T02:27:24;101096.09;;;23.66;61.91
38466;BME280;24244;51.950;5.902;2023-06-26T02:29:52;101103.69;;;23.64;61.92
38466;BME280;24244;51.950;5.902;2023-06-26T02:32:18;101100.41;;;23.62;61.89
38466;BME280;24244;51.950;5.902;2023-06-26T02:34:46;101107.72;;;23.61;61.84
38466;BME280;24244;51.950;5.902;2023-06-26T02:37:13;101106.06;;;23.55;62.06
38466;BME280;24244;51.950;5.902;2023-06-26T02:39:42;101110.41;;;23.51;61.81
38466;BME280;24244;51.950;5.902;2023-06-26T02:42:09;101108.44;;;23.47;62.01
38466;BME280;24244;51.950;5.902;2023-06-26T02:44:35;101108.97;;;23.43;61.60
38466;BME280;24244;51.950;5.902;2023-06-26T02:47:05;101109.75;;;23.39;61.90
38466;BME280;24244;51.950;5.902;2023-06-26T02:49:32;101120.31;;;23.35;61.77
38466;BME280;24244;51.950;5.902;2023-06-26T02:52:00;101122.97;;;23.30;61.85
38466;BME280;24244;51.950;5.902;2023-06-26T02:54:27;101133.03;;;23.30;61.79
38466;BME280;24244;51.950;5.902;2023-06-26T02:56:53;101127.56;;;23.25;61.89
38466;BME280;24244;51.950;5.902;2023-06-26T02:59:22;101125.38;;;23.22;61.90
38466;BME280;24244;51.950;5.902;2023-06-26T03:01:49;101135.16;;;23.23;61.70
38466;BME280;24244;51.950;5.902;2023-06-26T03:04:15;101131.63;;;23.22;61.53
38466;BME280;24244;51.950;5.902;2023-06-26T03:06:44;101134.84;;;23.19;62.03
38466;BME280;24244;51.950;5.902;2023-06-26T03:09:12;101140.78;;;23.16;61.67
38466;BME280;24244;51.950;5.902;2023-06-26T03:11:40;101138.84;;;23.12;62.20
38466;BME280;24244;51.950;5.902;2023-06-26T03:14:07;101144.53;;;23.10;62.09
38466;BME280;24244;51.950;5.902;2023-06-26T03:16:34;101140.72;;;23.06;62.12
38466;BME280;24244;51.950;5.902;2023-06-26T03:19:01;101140.16;;;23.04;62.13
38466;BME280;24244;51.950;5.902;2023-06-26T03:21:28;101145.84;;;23.02;62.22
38466;BME280;24244;51.950;5.902;2023-06-26T03:23:55;101144.16;;;22.96;62.26
38466;BME280;24244;51.950;5.902;2023-06-26T03:26:23;101145.50;;;22.94;62.46
38466;BME280;24244;51.950;5.902;2023-06-26T03:28:54;101154.97;;;22.91;62.84
38466;BME280;24244;51.950;5.902;2023-06-26T03:31:21;101147.91;;;22.90;62.56
38466;BME280;24244;51.950;5.902;2023-06-26T03:33:48;101153.88;;;22.87;62.64
38466;BME280;24244;51.950;5.902;2023-06-26T03:36:15;101154.94;;;22.86;62.58
38466;BME280;24244;51.950;5.902;2023-06-26T03:38:41;101157.91;;;22.85;62.72
38466;BME280;24244;51.950;5.902;2023-06-26T03:41:08;101153.25;;;22.80;63.10
38466;BME280;24244;51.950;5.902;2023-06-26T03:43:36;101152.44;;;22.80;62.84
38466;BME280;24244;51.950;5.902;2023-06-26T03:46:05;101142.09;;;22.77;63.08
38466;BME280;24244;51.950;5.902;2023-06-26T03:48:33;101141.81;;;22.73;63.19
38466;BME280;24244;51.950;5.902;2023-06-26T03:50:59;101140.38;;;22.71;63.30
38466;BME280;24244;51.950;5.902;2023-06-26T03:53:28;101147.13;;;22.68;63.34
38466;BME280;24244;51.950;5.902;2023-06-26T03:55:55;101150.38;;;22.65;63.45
38466;BME280;24244;51.950;5.902;2023-06-26T03:58:22;101160.63;;;22.63;63.58
38466;BME280;24244;51.950;5.902;2023-06-26T04:00:50;101156.28;;;22.62;63.64
38466;BME280;24244;51.950;5.902;2023-06-26T04:03:17;101151.41;;;22.59;63.99
38466;BME280;24244;51.950;5.902;2023-06-26T04:05:43;101149.47;;;22.59;63.89
38466;BME280;24244;51.950;5.902;2023-06-26T04:08:10;101156.81;;;22.59;64.01
38466;BME280;24244;51.950;5.902;2023-06-26T04:10:37;101154.91;;;22.59;64.06
38466;BME280;24244;51.950;5.902;2023-06-26T04:13:04;101169.84;;;22.62;63.74
38466;BME280;24244;51.950;5.902;2023-06-26T04:15:31;101173.88;;;22.59;64.15
38466;BME280;24244;51.950;5.902;2023-06-26T04:17:59;101174.16;;;22.58;64.41
38466;BME280;24244;51.950;5.902;2023-06-26T04:20:26;101182.28;;;22.58;64.27
38466;BME280;24244;51.950;5.902;2023-06-26T04:22:53;101181.47;;;22.57;64.55
38466;BME280;24244;51.950;5.902;2023-06-26T04:25:20;101186.88;;;22.57;64.49
38466;BME280;24244;51.950;5.902;2023-06-26T04:27:47;101189.84;;;22.56;64.52
38466;BME280;24244;51.950;5.902;2023-06-26T04:30:14;101192.78;;;22.54;64.70
38466;BME280;24244;51.950;5.902;2023-06-26T04:32:41;101192.78;;;22.54;64.56
38466;BME280;24244;51.950;5.902;2023-06-26T04:35:09;101206.34;;;22.54;64.89
38466;BME280;24244;51.950;5.902;2023-06-26T04:37:36;101201.16;;;22.53;64.94
38466;BME280;24244;51.950;5.902;2023-06-26T04:40:04;101200.88;;;22.49;65.07
38466;BME280;24244;51.950;5.902;2023-06-26T04:42:31;101190.28;;;22.48;65.16
38466;BME280;24244;51.950;5.902;2023-06-26T04:44:58;101201.38;;;22.46;65.31
38466;BME280;24244;51.950;5.902;2023-06-26T04:47:25;101195.66;;;22.43;65.39
38466;BME280;24244;51.950;5.902;2023-06-26T04:49:52;101206.13;;;22.34;65.76
38466;BME280;24244;51.950;5.902;2023-06-26T04:52:21;101204.72;;;22.32;65.95
38466;BME280;24244;51.950;5.902;2023-06-26T04:54:48;101203.34;;;22.29;66.04
38466;BME280;24244;51.950;5.902;2023-06-26T04:57:15;101210.66;;;22.29;66.02
38466;BME280;24244;51.950;5.902;2023-06-26T04:59:45;101209.84;;;22.28;66.30
38466;BME280;24244;51.950;5.902;2023-06-26T05:02:12;101213.63;;;22.27;66.28
38466;BME280;24244;51.950;5.902;2023-06-26T05:04:41;101215.50;;;22.26;66.24
38466;BME280;24244;51.950;5.902;2023-06-26T05:07:09;101213.84;;;22.25;66.21
38466;BME280;24244;51.950;5.902;2023-06-26T05:09:37;101205.19;;;22.23;66.10
38466;BME280;24244;51.950;5.902;2023-06-26T05:12:04;101212.22;;;22.24;66.23
38466;BME280;24244;51.950;5.902;2023-06-26T05:14:31;101216.03;;;22.23;66.37
38466;BME280;24244;51.950;5.902;2023-06-26T05:16:58;101226.28;;;22.21;66.34
38466;BME280;24244;51.950;5.902;2023-06-26T05:19:25;101232.53;;;22.22;66.20
38466;BME280;24244;51.950;5.902;2023-06-26T05:21:52;101218.41;;;22.20;66.38
38466;BME280;24244;51.950;5.902;2023-06-26T05:24:20;101225.47;;;22.21;66.32
38466;BME280;24244;51.950;5.902;2023-06-26T05:26:52;101230.53;;;22.17;66.36
38466;BME280;24244;51.950;5.902;2023-06-26T05:29:22;101240.31;;;22.18;66.40
38466;BME280;24244;51.950;5.902;2023-06-26T05:31:50;101241.94;;;22.19;66.33
38466;BME280;24244;51.950;5.902;2023-06-26T05:34:20;101251.72;;;22.20;66.15
38466;BME280;24244;51.950;5.902;2023-06-26T05:36:50;101259.03;;;22.20;66.23
38466;BME280;24244;51.950;5.902;2023-06-26T05:39:17;101266.09;;;22.21;66.20
38466;BME280;24244;51.950;5.902;2023-06-26T05:41:45;101261.50;;;22.21;66.38
38466;BME280;24244;51.950;5.902;2023-06-26T05:44:13;101258.53;;;22.23;66.38
38466;BME280;24244;51.950;5.902;2023-06-26T05:46:40;101260.97;;;22.24;65.96
38466;BME280;24244;51.950;5.902;2023-06-26T05:49:08;101269.91;;;22.25;66.09
38466;BME280;24244;51.950;5.902;2023-06-26T05:51:37;101278.31;;;22.23;66.10
38466;BME280;24244;51.950;5.902;2023-06-26T05:54:04;101283.41;;;22.20;66.16
38466;BME280;24244;51.950;5.902;2023-06-26T05:56:32;101279.63;;;22.21;66.11
38466;BME280;24244;51.950;5.902;2023-06-26T05:59:00;101287.50;;;22.22;66.06
38466;BME280;24244;51.950;5.902;2023-06-26T06:01:29;101297.28;;;22.23;65.96
38466;BME280;24244;51.950;5.902;2023-06-26T06:03:56;101296.69;;;22.21;65.95
38466;BME280;24244;51.950;5.902;2023-06-26T06:06:24;101305.88;;;22.20;65.67
38466;BME280;24244;51.950;5.902;2023-06-26T06:08:51;101297.41;;;22.17;65.70
38466;BME280;24244;51.950;5.902;2023-06-26T06:11:17;101295.06;;;22.20;65.78
38466;BME280;24244;51.950;5.902;2023-06-26T06:13:44;101299.97;;;22.23;65.53
38466;BME280;24244;51.950;5.902;2023-06-26T06:16:11;101307.00;;;22.24;65.32
38466;BME280;24244;51.950;5.902;2023-06-26T06:18:39;101312.44;;;22.24;65.09
38466;BME280;24244;51.950;5.902;2023-06-26T06:21:09;101317.84;;;22.24;64.79
38466;BME280;24244;51.950;5.902;2023-06-26T06:23:36;101322.19;;;22.25;64.74
38466;BME280;24244;51.950;5.902;2023-06-26T06:26:04;101331.16;;;22.26;64.60
38466;BME280;24244;51.950;5.902;2023-06-26T06:28:32;101330.84;;;22.22;64.46
38466;BME280;24244;51.950;5.902;2023-06-26T06:30:58;101330.84;;;22.22;64.40
38466;BME280;24244;51.950;5.902;2023-06-26T06:33:25;101340.34;;;22.25;64.15
38466;BME280;24244;51.950;5.902;2023-06-26T06:35:53;101336.56;;;22.26;63.73
38466;BME280;24244;51.950;5.902;2023-06-26T06:38:20;101346.09;;;22.29;63.65
38466;BME280;24244;51.950;5.902;2023-06-26T06:40:47;101350.97;;;22.32;63.45
38466;BME280;24244;51.950;5.902;2023-06-26T06:43:14;101346.91;;;22.29;63.05
38466;BME280;24244;51.950;5.902;2023-06-26T06:45:41;101343.88;;;22.25;62.93
38466;BME280;24244;51.950;5.902;2023-06-26T06:48:08;101341.41;;;22.24;62.91
38466;BME280;24244;51.950;5.902;2023-06-26T06:50:35;101342.78;;;22.26;62.65
38466;BME280;24244;51.950;5.902;2023-06-26T06:53:04;101352.88;;;22.31;62.64
38466;BME280;24244;51.950;5.902;2023-06-26T06:55:31;101368.63;;;22.34;62.45
38466;BME280;24244;51.950;5.902;2023-06-26T06:57:57;101359.22;;;22.37;62.28
38466;BME280;24244;51.950;5.902;2023-06-26T07:00:24;101371.41;;;22.39;61.86
38466;BME280;24244;51.950;5.902;2023-06-26T07:02:53;101379.81;;;22.38;61.88
38466;BME280;24244;51.950;5.902;2023-06-26T07:05:20;101371.59;;;22.33;61.42
38466;BME280;24244;51.950;5.902;2023-06-26T07:07:47;101375.31;;;22.26;61.24
38466;BME280;24244;51.950;5.902;2023-06-26T07:10:15;101377.44;;;22.24;61.41
38466;BME280;24244;51.950;5.902;2023-06-26T07:12:42;101379.91;;;22.26;61.53
38466;BME280;24244;51.950;5.902;2023-06-26T07:15:10;101389.72;;;22.32;61.28
38466;BME280;24244;51.950;5.902;2023-06-26T07:17:37;101388.41;;;22.35;61.14
38466;BME280;24244;51.950;5.902;2023-06-26T07:20:06;101391.19;;;22.40;61.23
38466;BME280;24244;51.950;5.902;2023-06-26T07:22:36;101392.91;;;22.46;61.00
38466;BME280;24244;51.950;5.902;2023-06-26T07:25:03;101402.50;;;22.53;61.11
38466;BME280;24244;51.950;5.902;2023-06-26T07:27:32;101405.78;;;22.55;60.64
38466;BME280;24244;51.950;5.902;2023-06-26T07:30:00;101412.50;;;22.53;60.71
38466;BME280;24244;51.950;5.902;2023-06-26T07:32:27;101413.44;;;22.42;60.69
38466;BME280;24244;51.950;5.902;2023-06-26T07:34:54;101411.03;;;22.45;60.77
38466;BME280;24244;51.950;5.902;2023-06-26T07:37:21;101410.31;;;22.50;60.68
38466;BME280;24244;51.950;5.902;2023-06-26T07:39:48;101419.56;;;22.54;60.80
38466;BME280;24244;51.950;5.902;2023-06-26T07:42:15;101422.81;;;22.51;60.80
38466;BME280;24244;51.950;5.902;2023-06-26T07:44:44;101428.13;;;22.46;60.45
38466;BME280;24244;51.950;5.902;2023-06-26T07:47:11;101427.00;;;22.42;60.63
38466;BME280;24244;51.950;5.902;2023-06-26T07:49:39;101422.22;;;22.49;60.87
38466;BME280;24244;51.950;5.902;2023-06-26T07:52:06;101426.66;;;22.55;60.90
38466;BME280;24244;51.950;5.902;2023-06-26T07:54:33;101429.41;;;22.60;60.86
38466;BME280;24244;51.950;5.902;2023-06-26T07:57:01;101429.50;;;22.65;60.91
38466;BME280;24244;51.950;5.902;2023-06-26T07:59:29;101431.22;;;22.71;60.84
38466;BME280;24244;51.950;5.902;2023-06-26T08:01:57;101434.53;;;22.73;60.89
38466;BME280;24244;51.950;5.902;2023-06-26T08:04:26;101445.94;;;22.75;61.01
38466;BME280;24244;51.950;5.902;2023-06-26T08:06:54;101445.94;;;22.75;60.85
38466;BME280;24244;51.950;5.902;2023-06-26T08:09:24;101446.16;;;22.74;60.95
38466;BME280;24244;51.950;5.902;2023-06-26T08:11:51;101450.81;;;22.73;60.77
38466;BME280;24244;51.950;5.902;2023-06-26T08:14:18;101453.81;;;22.77;60.87
38466;BME280;24244;51.950;5.902;2023-06-26T08:16:46;101453.00;;;22.76;60.66
38466;BME280;24244;51.950;5.902;2023-06-26T08:19:15;101450.19;;;22.71;60.88
38466;BME280;24244;51.950;5.902;2023-06-26T08:21:43;101440.50;;;22.75;60.95
38466;BME280;24244;51.950;5.902;2023-06-26T08:24:11;101440.31;;;22.82;60.96
38466;BME280;24244;51.950;5.902;2023-06-26T08:26:41;101442.03;;;22.88;61.00
38466;BME280;24244;51.950;5.902;2023-06-26T08:29:08;101446.47;;;22.94;61.01
38466;BME280;24244;51.950;5.902;2023-06-26T08:31:38;101442.75;;;23.00;60.63
38466;BME280;24244;51.950;5.902;2023-06-26T08:34:06;101453.41;;;23.07;60.70
38466;BME280;24244;51.950;5.902;2023-06-26T08:36:36;101468.09;;;23.11;60.62
38466;BME280;24244;51.950;5.902;2023-06-26T08:39:03;101464.84;;;23.09;60.64
38466;BME280;24244;51.950;5.902;2023-06-26T08:41:32;101468.34;;;23.09;60.71
38466;BME280;24244;51.950;5.902;2023-06-26T08:43:59;101467.25;;;23.10;60.89
38466;BME280;24244;51.950;5.902;2023-06-26T08:46:26;101470.25;;;23.09;60.63
38466;BME280;24244;51.950;5.902;2023-06-26T08:48:56;101485.19;;;23.11;60.44
38466;BME280;24244;51.950;5.902;2023-06-26T08:51:25;101484.94;;;23.13;60.32
38466;BME280;24244;51.950;5.902;2023-06-26T08:53:56;101494.16;;;23.12;60.26
38466;BME280;24244;51.950;5.902;2023-06-26T08:56:25;101485.19;;;23.11;60.07
38466;BME280;24244;51.950;5.902;2023-06-26T08:58:54;101490.94;;;23.15;59.83
38466;BME280;24244;51.950;5.902;2023-06-26T09:01:21;101493.38;;;23.16;59.85
38466;BME280;24244;51.950;5.902;2023-06-26T09:03:51;101485.50;;;23.15;59.45
38466;BME280;24244;51.950;5.902;2023-06-26T09:06:18;101496.38;;;23.15;59.22
38466;BME280;24244;51.950;5.902;2023-06-26T09:08:45;101498.81;;;23.16;59.21
38466;BME280;24244;51.950;5.902;2023-06-26T09:11:13;101494.19;;;23.17;59.26
38466;BME280;24244;51.950;5.902;2023-06-26T09:13:40;101500.78;;;23.21;59.09
38466;BME280;24244;51.950;5.902;2023-06-26T09:16:09;101507.56;;;23.23;58.34
38466;BME280;24244;51.950;5.902;2023-06-26T09:18:36;101508.72;;;23.27;58.34
38466;BME280;24244;51.950;5.902;2023-06-26T09:21:07;101504.69;;;23.30;57.84
38466;BME280;24244;51.950;5.902;2023-06-26T09:23:35;101514.22;;;23.32;57.76
38466;BME280;24244;51.950;5.902;2023-06-26T09:26:02;101509.94;;;23.36;57.63
38466;BME280;24244;51.950;5.902;2023-06-26T09:28:31;101514.59;;;23.41;57.51
38466;BME280;24244;51.950;5.902;2023-06-26T09:31:03;101517.88;;;23.43;56.78
38466;BME280;24244;51.950;5.902;2023-06-26T09:33:34;101521.91;;;23.40;56.52
38466;BME280;24244;51.950;5.902;2023-06-26T09:36:05;101526.72;;;23.33;56.35
38466;BME280;24244;51.950;5.902;2023-06-26T09:38:34;101520.69;;;23.31;56.36
38466;BME280;24244;51.950;5.902;2023-06-26T09:41:02;101532.13;;;23.33;56.35
38466;BME280;24244;51.950;5.902;2023-06-26T09:43:30;101526.47;;;23.35;56.13
38466;BME280;24244;51.950;5.902;2023-06-26T09:46:02;101531.25;;;23.28;55.67
38466;BME280;24244;51.950;5.902;2023-06-26T09:48:29;101540.75;;;23.30;55.65
38466;BME280;24244;51.950;5.902;2023-06-26T09:51:00;101538.81;;;23.26;55.53
38466;BME280;24244;51.950;5.902;2023-06-26T09:53:42;101533.44;;;23.31;55.77
38466;BME280;24244;51.950;5.902;2023-06-26T09:56:14;101538.72;;;23.37;55.36
38466;BME280;24244;51.950;5.902;2023-06-26T09:58:44;101536.88;;;23.43;55.20
38466;BME280;24244;51.950;5.902;2023-06-26T10:01:11;101540.97;;;23.46;55.04
38466;BME280;24244;51.950;5.902;2023-06-26T10:03:38;101553.81;;;23.50;54.72
38466;BME280;24244;51.950;5.902;2023-06-26T10:06:07;101548.19;;;23.57;54.79
38466;BME280;24244;51.950;5.902;2023-06-26T10:08:37;101556.41;;;23.62;54.68
38466;BME280;24244;51.950;5.902;2023-06-26T10:11:05;101553.44;;;23.63;54.61
38466;BME280;24244;51.950;5.902;2023-06-26T10:13:38;101556.97;;;23.64;54.54
38466;BME280;24244;51.950;5.902;2023-06-26T10:16:08;101551.78;;;23.62;54.46
38466;BME280;24244;51.950;5.902;2023-06-26T10:18:38;101563.22;;;23.64;54.32
38466;BME280;24244;51.950;5.902;2023-06-26T10:21:11;101575.16;;;23.63;54.06
38466;BME280;24244;51.950;5.902;2023-06-26T10:23:40;101580.00;;;23.61;53.93
38466;BME280;24244;51.950;5.902;2023-06-26T10:26:11;101566.44;;;23.61;53.45
38466;BME280;24244;51.950;5.902;2023-06-26T10:28:39;101567.16;;;23.52;53.12
38466;BME280;24244;51.950;5.902;2023-06-26T10:31:11;101568.53;;;23.54;53.34
38466;BME280;24244;51.950;5.902;2023-06-26T10:33:38;101566.63;;;23.55;52.72
38466;BME280;24244;51.950;5.902;2023-06-26T10:36:16;101578.00;;;23.52;52.29
38466;BME280;24244;51.950;5.902;2023-06-26T10:38:49;101576.09;;;23.52;52.55
38466;BME280;24244;51.950;5.902;2023-06-26T10:41:20;101589.75;;;23.57;52.72
38466;BME280;24244;51.950;5.902;2023-06-26T10:43:51;101591.94;;;23.60;52.53
38466;BME280;24244;51.950;5.902;2023-06-26T10:46:48;101577.88;;;23.63;52.27
38466;BME280;24244;51.950;5.902;2023-06-26T10:49:15;101576.28;;;23.67;52.38
38466;BME280;24244;51.950;5.902;2023-06-26T10:51:46;101563.59;;;23.73;52.08
38466;BME280;24244;51.950;5.902;2023-06-26T10:54:15;101571.81;;;23.78;51.69
38466;BME280;24244;51.950;5.902;2023-06-26T10:56:42;101589.22;;;23.82;51.35
38466;BME280;24244;51.950;5.902;2023-06-26T10:59:17;101585.19;;;23.85;51.14
38466;BME280;24244;51.950;5.902;2023-06-26T11:01:53;101589.00;;;23.89;50.81
38466;BME280;24244;51.950;5.902;2023-06-26T11:04:36;101586.06;;;23.90;50.66
38466;BME280;24244;51.950;5.902;2023-06-26T11:07:14;101592.34;;;23.96;50.62
38466;BME280;24244;51.950;5.902;2023-06-26T11:09:55;101613.84;;;23.97;50.74
38466;BME280;24244;51.950;5.902;2023-06-26T11:12:38;101607.09;;;24.00;50.42
38466;BME280;24244;51.950;5.902;2023-06-26T11:15:08;101598.34;;;23.98;49.72
38466;BME280;24244;51.950;5.902;2023-06-26T11:17:36;101600.00;;;23.99;49.52
38466;BME280;24244;51.950;5.902;2023-06-26T11:20:05;101610.25;;;23.92;49.55
38466;BME280;24244;51.950;5.902;2023-06-26T11:22:34;101624.84;;;23.86;49.50
38466;BME280;24244;51.950;5.902;2023-06-26T11:25:02;101619.31;;;23.80;49.79
38466;BME280;24244;51.950;5.902;2023-06-26T11:27:37;101609.63;;;23.85;49.84
38466;BME280;24244;51.950;5.902;2023-06-26T11:30:05;101605.31;;;23.89;49.71
38466;BME280;24244;51.950;5.902;2023-06-26T11:32:34;101610.25;;;23.92;49.55
38466;BME280;24244;51.950;5.902;2023-06-26T11:35:03;101628.09;;;23.88;49.27
38466;BME280;24244;51.950;5.902;2023-06-26T11:37:32;101631.09;;;23.86;49.32
38466;BME280;24244;51.950;5.902;2023-06-26T11:39:59;101631.59;;;23.83;48.87
38466;BME280;24244;51.950;5.902;2023-06-26T11:42:26;101634.00;;;23.79;49.02
38466;BME280;24244;51.950;5.902;2023-06-26T11:44:54;101647.56;;;23.79;49.23
38466;BME280;24244;51.950;5.902;2023-06-26T11:47:21;101654.13;;;23.84;49.23
38466;BME280;24244;51.950;5.902;2023-06-26T11:49:50;101659.06;;;23.87;48.99
38466;BME280;24244;51.950;5.902;2023-06-26T11:52:18;101647.38;;;23.86;49.07
38466;BME280;24244;51.950;5.902;2023-06-26T11:54:47;101665.88;;;23.89;49.37
38466;BME280;24244;51.950;5.902;2023-06-26T11:57:14;101667.03;;;23.93;49.47
38466;BME280;24244;51.950;5.902;2023-06-26T11:59:41;101662.72;;;23.97;49.40
38466;BME280;24244;51.950;5.902;2023-06-26T12:02:10;101653.00;;;24.01;49.34
38466;BME280;24244;51.950;5.902;2023-06-26T12:04:38;101662.03;;;24.07;49.15
38466;BME280;24244;51.950;5.902;2023-06-26T12:07:08;101660.44;;;24.11;49.26
38466;BME280;24244;51.950;5.902;2023-06-26T12:09:42;101672.44;;;24.15;49.38
38466;BME280;24244;51.950;5.902;2023-06-26T12:12:10;101674.84;;;24.11;49.21
38466;BME280;24244;51.950;5.902;2023-06-26T12:14:39;101683.56;;;24.13;48.62
38466;BME280;24244;51.950;5.902;2023-06-26T12:17:11;101676.16;;;24.09;48.28
38466;BME280;24244;51.950;5.902;2023-06-26T12:19:38;101671.56;;;24.09;48.25
38466;BME280;24244;51.950;5.902;2023-06-26T12:22:06;101680.03;;;24.13;48.12
38466;BME280;24244;51.950;5.902;2023-06-26T12:24:36;101681.44;;;24.15;47.89
38466;BME280;24244;51.950;5.902;2023-06-26T12:27:08;101673.56;;;24.19;47.75
38466;BME280;24244;51.950;5.902;2023-06-26T12:29:35;101670.41;;;24.22;47.76
38466;BME280;24244;51.950;5.902;2023-06-26T12:32:03;101678.34;;;24.29;47.92
38466;BME280;24244;51.950;5.902;2023-06-26T12:34:32;101675.91;;;24.32;47.56
38466;BME280;24244;51.950;5.902;2023-06-26T12:37:01;101687.94;;;24.36;47.31
38466;BME280;24244;51.950;5.902;2023-06-26T12:39:29;101686.84;;;24.37;47.23
38466;BME280;24244;51.950;5.902;2023-06-26T12:41:59;101688.81;;;24.42;47.41
38466;BME280;24244;51.950;5.902;2023-06-26T12:44:34;101685.31;;;24.46;47.31
38466;BME280;24244;51.950;5.902;2023-06-26T12:47:03;101673.94;;;24.49;47.09
38466;BME280;24244;51.950;5.902;2023-06-26T12:49:31;101680.75;;;24.52;47.16
38466;BME280;24244;51.950;5.902;2023-06-26T12:51:59;101672.03;;;24.50;46.79
38466;BME280;24244;51.950;5.902;2023-06-26T12:54:26;101671.72;;;24.46;46.60
38466;BME280;24244;51.950;5.902;2023-06-26T12:56:53;101678.19;;;24.40;46.16